createdAt,value
2018-04-17T00:00:06.488Z,101307.88
2018-04-17T00:02:38.999Z,101306.66
2018-04-17T00:05:11.528Z,101308.55
2018-04-17T00:07:44.111Z,101315.67
2018-04-17T00:10:16.630Z,101317.34
2018-04-17T00:12:49.123Z,101319.75
2018-04-17T00:15:21.637Z,101317.55
2018-04-17T00:17:54.128Z,101325.63
2018-04-17T00:20:26.643Z,101324.41
2018-04-17T00:22:59.137Z,101329.84
2018-04-17T00:25:31.703Z,101333.64
2018-04-17T00:28:04.198Z,101331.05
2018-04-17T00:30:36.707Z,101338.23
2018-04-17T00:33:09.255Z,101335.20
2018-04-17T00:35:41.841Z,101339.14
2018-04-17T00:38:14.332Z,101343.48
2018-04-17T00:40:46.856Z,101343.94
2018-04-17T00:43:19.352Z,101348.67
2018-04-17T00:45:51.879Z,101363.30
2018-04-17T00:48:24.370Z,101361.64
2018-04-17T00:50:56.905Z,101365.27
2018-04-17T00:53:41.205Z,101361.48
2018-04-17T00:56:13.806Z,101367.84
2018-04-17T00:58:46.299Z,101367.86
2018-04-17T01:01:18.823Z,101367.16
2018-04-17T01:03:51.378Z,101368.15
2018-04-17T01:06:24.935Z,101374.22
2018-04-17T01:08:57.436Z,101373.08
2018-04-17T01:11:30.683Z,101374.36
2018-04-17T01:14:03.172Z,101376.61
2018-04-17T01:16:35.763Z,101369.47
2018-04-17T01:19:08.336Z,101376.41
2018-04-17T01:21:40.866Z,101382.41
2018-04-17T01:24:13.371Z,101381.67
2018-04-17T01:26:45.890Z,101378.77
2018-04-17T01:29:18.444Z,101376.25
2018-04-17T01:31:50.955Z,101379.67
2018-04-17T01:34:23.447Z,101381.36
2018-04-17T01:36:55.961Z,101379.23
2018-04-17T01:39:28.468Z,101380.52
2018-04-17T01:42:00.997Z,101382.64
2018-04-17T01:44:33.586Z,101388.16
2018-04-17T01:47:06.107Z,101384.86
2018-04-17T01:49:38.602Z,101385.77
2018-04-17T01:52:11.112Z,101396.00
2018-04-17T01:54:43.599Z,101398.55
2018-04-17T01:57:16.203Z,101396.50
2018-04-17T01:59:48.710Z,101394.83
2018-04-17T02:02:21.271Z,101399.53
2018-04-17T02:04:53.769Z,101398.31
2018-04-17T02:07:26.278Z,101400.04
2018-04-17T02:09:58.843Z,101395.80
2018-04-17T02:12:31.376Z,101398.41
2018-04-17T02:15:03.878Z,101393.77
2018-04-17T02:17:36.476Z,101394.66
2018-04-17T02:20:09.063Z,101398.11
2018-04-17T02:22:41.572Z,101399.45
2018-04-17T02:25:14.064Z,101394.34
2018-04-17T02:27:46.571Z,101393.10
2018-04-17T02:30:19.084Z,101396.98
2018-04-17T02:32:51.691Z,101396.58
2018-04-17T02:35:24.188Z,101401.72
2018-04-17T02:37:56.708Z,101396.63
2018-04-17T02:40:29.243Z,101402.13
2018-04-17T02:43:02.672Z,101400.02
2018-04-17T02:45:35.238Z,101400.05
2018-04-17T02:48:07.747Z,101399.63
2018-04-17T02:50:40.276Z,101407.73
2018-04-17T02:53:12.787Z,101410.33
2018-04-17T02:55:45.286Z,101416.25
2018-04-17T02:58:17.808Z,101417.09
2018-04-17T03:00:50.334Z,101415.40
2018-04-17T03:03:22.926Z,101416.70
2018-04-17T03:05:55.451Z,101415.89
2018-04-17T03:08:27.951Z,101414.21
2018-04-17T03:11:00.455Z,101419.75
2018-04-17T03:13:32.946Z,101423.98
2018-04-17T03:16:05.462Z,101426.98
2018-04-17T03:18:37.970Z,101429.55
2018-04-17T03:21:10.483Z,101438.92
2018-04-17T03:23:42.970Z,101442.32
2018-04-17T03:26:16.394Z,101435.09
2018-04-17T03:28:48.887Z,101448.73
2018-04-17T03:31:21.402Z,101444.91
2018-04-17T03:33:53.894Z,101442.73
2018-04-17T03:36:26.439Z,101451.67
2018-04-17T03:38:58.930Z,101448.27
2018-04-17T03:41:31.442Z,101451.25
2018-04-17T03:44:03.924Z,101449.57
2018-04-17T03:46:36.475Z,101458.08
2018-04-17T03:49:08.963Z,101454.27
2018-04-17T03:51:41.538Z,101455.55
2018-04-17T03:54:14.028Z,101458.96
2018-04-17T03:56:46.540Z,101461.52
2018-04-17T03:59:19.099Z,101465.36
2018-04-17T04:01:51.687Z,101467.90
2018-04-17T04:04:24.179Z,101475.53
2018-04-17T04:06:56.759Z,101479.37
2018-04-17T04:09:29.250Z,101481.92
2018-04-17T04:12:01.832Z,101483.19
2018-04-17T04:14:34.429Z,101485.75
2018-04-17T04:17:18.983Z,101489.55
2018-04-17T04:20:03.452Z,101496.34
2018-04-17T04:22:48.014Z,101504.02
2018-04-17T04:25:43.368Z,101514.63
2018-04-17T04:28:15.873Z,101512.52
2018-04-17T04:30:48.403Z,101512.92
2018-04-17T04:33:20.991Z,101504.86
2018-04-17T04:35:53.479Z,101505.72
2018-04-17T04:38:26.055Z,101513.34
2018-04-17T04:40:58.551Z,101518.45
2018-04-17T04:43:31.055Z,101525.25
2018-04-17T04:46:03.628Z,101520.59
2018-04-17T04:48:36.138Z,101532.47
2018-04-17T04:51:08.632Z,101535.47
2018-04-17T04:53:41.143Z,101535.88
2018-04-17T04:56:13.631Z,101540.12
2018-04-17T04:58:46.139Z,101551.16
2018-04-17T05:01:18.628Z,101559.67
2018-04-17T05:03:51.132Z,101564.78
2018-04-17T05:06:23.630Z,101565.20
2018-04-17T05:08:56.220Z,101574.11
2018-04-17T05:11:28.726Z,101574.12
2018-04-17T05:14:01.547Z,101587.70
2018-04-17T05:16:34.040Z,101590.66
2018-04-17T05:19:06.625Z,101583.87
2018-04-17T05:21:39.132Z,101585.40
2018-04-17T05:24:11.668Z,101596.66
2018-04-17T05:26:44.186Z,101594.44
2018-04-17T05:29:16.722Z,101606.30
2018-04-17T05:31:49.867Z,101610.52
2018-04-17T05:34:22.452Z,101617.94
2018-04-17T05:36:55.046Z,101616.22
2018-04-17T05:39:27.571Z,101620.59
2018-04-17T05:42:00.092Z,101618.39
2018-04-17T05:44:32.619Z,101618.66
2018-04-17T05:47:05.118Z,101629.55
2018-04-17T05:49:37.656Z,101631.11
2018-04-17T05:52:10.158Z,101642.25
2018-04-17T05:54:42.687Z,101644.59
2018-04-17T05:57:15.181Z,101648.10
2018-04-17T05:59:47.692Z,101651.22
2018-04-17T06:02:20.281Z,101661.74
2018-04-17T06:04:52.786Z,101658.72
2018-04-17T06:07:25.286Z,101665.19
2018-04-17T06:09:57.830Z,101667.69
2018-04-17T06:12:30.345Z,101675.91
2018-04-17T06:15:02.836Z,101671.02
2018-04-17T06:17:35.357Z,101684.03
2018-04-17T06:20:07.847Z,101685.27
2018-04-17T06:22:40.355Z,101683.70
2018-04-17T06:25:12.855Z,101684.53
2018-04-17T06:27:45.428Z,101690.38
2018-04-17T06:30:17.928Z,101690.63
2018-04-17T06:32:50.500Z,101684.55
2018-04-17T06:35:23.000Z,101691.19
2018-04-17T06:37:55.522Z,101693.84
2018-04-17T06:40:28.056Z,101692.97
2018-04-17T06:43:00.578Z,101695.76
2018-04-17T06:45:33.091Z,101690.44
2018-04-17T06:48:05.608Z,101690.72
2018-04-17T06:50:38.109Z,101686.16
2018-04-17T06:53:10.623Z,101694.70
2018-04-17T06:55:43.119Z,101697.98
2018-04-17T06:58:15.655Z,101707.53
2018-04-17T07:00:48.146Z,101704.53
2018-04-17T07:03:20.705Z,101706.23
2018-04-17T07:05:53.203Z,101699.95
2018-04-17T07:08:25.799Z,101705.47
2018-04-17T07:10:58.372Z,101709.60
2018-04-17T07:13:30.973Z,101700.35
2018-04-17T07:16:03.558Z,101713.95
2018-04-17T07:18:36.067Z,101713.00
2018-04-17T07:21:08.557Z,101717.05
2018-04-17T07:23:41.104Z,101727.09
2018-04-17T07:26:13.598Z,101728.44
2018-04-17T07:28:46.143Z,101721.09
2018-04-17T07:31:18.636Z,101718.42
2018-04-17T07:33:51.148Z,101721.64
2018-04-17T07:36:23.642Z,101725.06
2018-04-17T07:38:56.159Z,101730.92
2018-04-17T07:41:28.654Z,101734.47
2018-04-17T07:44:01.175Z,101728.56
2018-04-17T07:46:33.694Z,101729.04
2018-04-17T07:49:07.084Z,101730.19
2018-04-17T07:51:39.687Z,101727.41
2018-04-17T07:54:12.424Z,101728.36
2018-04-17T07:56:44.927Z,101728.22
2018-04-17T07:59:17.448Z,101726.34
2018-04-17T08:01:50.016Z,101734.30
2018-04-17T08:04:22.637Z,101734.69
2018-04-17T08:06:55.151Z,101737.05
2018-04-17T08:09:27.673Z,101739.47
2018-04-17T08:12:00.804Z,101737.74
2018-04-17T08:14:33.328Z,101735.84
2018-04-17T08:17:05.820Z,101742.55
2018-04-17T08:19:38.339Z,101744.81
2018-04-17T08:22:10.842Z,101745.52
2018-04-17T08:24:43.362Z,101743.39
2018-04-17T08:27:15.898Z,101745.75
2018-04-17T08:29:48.475Z,101751.63
2018-04-17T08:32:21.066Z,101751.85
2018-04-17T08:34:53.646Z,101749.28
2018-04-17T08:37:26.139Z,101756.81
2018-04-17T08:39:58.717Z,101753.35
2018-04-17T08:42:31.922Z,101749.61
2018-04-17T08:45:04.431Z,101756.22
2018-04-17T08:47:36.922Z,101753.50
2018-04-17T08:50:09.444Z,101755.14
2018-04-17T08:52:41.962Z,101765.63
2018-04-17T08:55:14.479Z,101760.73
2018-04-17T08:57:47.030Z,101764.16
2018-04-17T09:00:19.548Z,101771.51
2018-04-17T09:02:52.046Z,101766.47
2018-04-17T09:05:24.559Z,101762.73
2018-04-17T09:07:57.058Z,101760.08
2018-04-17T09:10:29.724Z,101759.34
2018-04-17T09:13:02.515Z,101766.02
2018-04-17T09:15:35.048Z,101769.17
2018-04-17T09:18:07.614Z,101766.97
2018-04-17T09:20:40.135Z,101763.23
2018-04-17T09:23:12.636Z,101765.70
2018-04-17T09:25:45.163Z,101763.25
2018-04-17T09:28:17.656Z,101764.78
2018-04-17T09:30:50.175Z,101773.00
2018-04-17T09:33:22.699Z,101769.53
2018-04-17T09:35:55.219Z,101762.21
2018-04-17T09:38:27.804Z,101765.39
2018-04-17T09:41:01.159Z,101775.42
2018-04-17T09:43:33.663Z,101777.33
2018-04-17T09:46:06.179Z,101778.66
2018-04-17T09:48:38.672Z,101784.70
2018-04-17T09:51:11.187Z,101787.11
2018-04-17T09:53:43.681Z,101788.64
2018-04-17T09:56:16.195Z,101794.42
2018-04-17T09:58:48.696Z,101791.26
2018-04-17T10:01:22.099Z,101790.55
2018-04-17T10:03:54.582Z,101792.61
2018-04-17T10:06:27.104Z,101792.89
2018-04-17T10:09:00.401Z,101790.59
2018-04-17T10:11:32.795Z,101794.30
2018-04-17T10:14:05.299Z,101793.40
2018-04-17T10:16:37.830Z,101781.80
2018-04-17T10:19:10.403Z,101785.59
2018-04-17T10:21:42.916Z,101776.41
2018-04-17T10:24:15.463Z,101775.12
2018-04-17T10:26:47.981Z,101771.88
2018-04-17T10:29:20.491Z,101778.38
2018-04-17T10:31:52.978Z,101772.48
2018-04-17T10:34:25.500Z,101772.33
2018-04-17T10:36:58.083Z,101771.83
2018-04-17T10:39:30.932Z,101780.98
2018-04-17T10:42:03.422Z,101771.46
2018-04-17T10:44:35.961Z,101777.31
2018-04-17T10:47:08.464Z,101772.13
2018-04-17T10:49:41.023Z,101763.89
2018-04-17T10:52:13.611Z,101759.60
2018-04-17T10:54:46.131Z,101762.18
2018-04-17T10:57:18.629Z,101760.79
2018-04-17T10:59:51.164Z,101757.92
2018-04-17T11:02:23.662Z,101754.38
2018-04-17T11:04:56.180Z,101758.97
2018-04-17T11:07:28.678Z,101754.16
2018-04-17T11:10:01.880Z,101752.50
2018-04-17T11:12:34.370Z,101755.08
2018-04-17T11:15:06.893Z,101766.39
2018-04-17T11:17:39.388Z,101762.51
2018-04-17T11:20:11.963Z,101759.83
2018-04-17T11:22:44.458Z,101756.08
2018-04-17T11:25:16.967Z,101755.77
2018-04-17T11:27:49.507Z,101749.73
2018-04-17T11:30:22.096Z,101748.89
2018-04-17T11:32:54.598Z,101749.46
2018-04-17T11:35:27.119Z,101741.39
2018-04-17T11:37:59.904Z,101744.59
2018-04-17T11:40:32.423Z,101751.50
2018-04-17T11:43:04.917Z,101744.95
2018-04-17T11:45:37.454Z,101741.17
2018-04-17T11:48:10.063Z,101742.45
2018-04-17T11:50:42.574Z,101736.55
2018-04-17T11:53:15.061Z,101736.57
2018-04-17T11:55:47.576Z,101738.92
2018-04-17T11:58:20.071Z,101730.27
2018-04-17T12:00:52.588Z,101737.12
2018-04-17T12:03:25.083Z,101730.35
2018-04-17T12:05:57.612Z,101732.53
2018-04-17T12:08:30.238Z,101732.89
2018-04-17T12:11:02.763Z,101734.67
2018-04-17T12:13:35.280Z,101734.41
2018-04-17T12:16:07.829Z,101732.72
2018-04-17T12:18:40.334Z,101740.34
2018-04-17T12:21:12.848Z,101744.09
2018-04-17T12:23:45.342Z,101743.16
2018-04-17T12:26:17.863Z,101733.52
2018-04-17T12:28:50.351Z,101737.31
2018-04-17T12:31:22.902Z,101739.23
2018-04-17T12:33:55.400Z,101741.47
2018-04-17T12:36:27.911Z,101741.66
2018-04-17T12:39:00.970Z,101756.73
2018-04-17T12:41:33.488Z,101762.02
2018-04-17T12:44:06.079Z,101756.98
2018-04-17T12:46:38.601Z,101762.70
2018-04-17T12:49:11.091Z,101756.63
2018-04-17T12:51:43.625Z,101755.11
2018-04-17T12:54:16.124Z,101753.87
2018-04-17T12:56:48.709Z,101749.84
2018-04-17T12:59:21.196Z,101761.31
2018-04-17T13:01:53.717Z,101754.69
2018-04-17T13:04:26.255Z,101754.49
2018-04-17T13:06:58.767Z,101762.23
2018-04-17T13:09:32.236Z,101754.25
2018-04-17T13:12:04.827Z,101742.29
2018-04-17T13:14:37.420Z,101750.00
2018-04-17T13:17:10.011Z,101758.99
2018-04-17T13:19:42.588Z,101742.89
2018-04-17T13:22:16.890Z,101741.08
2018-04-17T13:24:49.393Z,101746.73
2018-04-17T13:27:21.911Z,101743.19
2018-04-17T13:29:54.470Z,101742.44
2018-04-17T13:32:27.055Z,101736.02
2018-04-17T13:34:59.819Z,101732.70
2018-04-17T13:37:32.436Z,101733.98
2018-04-17T13:40:05.029Z,101731.25
2018-04-17T13:42:37.552Z,101729.37
2018-04-17T13:45:10.099Z,101725.75
2018-04-17T13:47:42.604Z,101731.64
2018-04-17T13:50:15.159Z,101732.37
2018-04-17T13:52:47.661Z,101729.56
2018-04-17T13:55:20.185Z,101729.61
2018-04-17T13:57:52.680Z,101726.80
2018-04-17T14:00:25.193Z,101720.16
2018-04-17T14:02:57.776Z,101716.22
2018-04-17T14:05:30.941Z,101718.43
2018-04-17T14:08:03.480Z,101713.41
2018-04-17T14:10:36.032Z,101717.56
2018-04-17T14:13:08.632Z,101722.45
2018-04-17T14:15:41.151Z,101722.57
2018-04-17T14:18:13.649Z,101723.27
2018-04-17T14:20:46.171Z,101718.34
2018-04-17T14:23:18.671Z,101712.83
2018-04-17T14:25:51.196Z,101719.27
2018-04-17T14:28:23.691Z,101718.25
2018-04-17T14:30:56.235Z,101718.34
2018-04-17T14:33:28.765Z,101728.52
2018-04-17T14:36:02.118Z,101724.45
2018-04-17T14:38:34.611Z,101732.06
2018-04-17T14:41:07.171Z,101726.75
2018-04-17T14:43:39.727Z,101727.84
2018-04-17T14:46:12.488Z,101725.09
2018-04-17T14:48:45.000Z,101730.72
2018-04-17T14:51:17.520Z,101727.51
2018-04-17T14:53:50.015Z,101732.09
2018-04-17T14:56:22.525Z,101737.05
2018-04-17T14:58:55.100Z,101743.94
2018-04-17T15:01:27.670Z,101737.05
2018-04-17T15:04:00.220Z,101736.00
2018-04-17T15:06:32.745Z,101731.83
2018-04-17T15:09:07.194Z,101740.05
2018-04-17T15:11:39.774Z,101745.59
2018-04-17T15:14:12.269Z,101747.34
2018-04-17T15:16:44.793Z,101742.23
2018-04-17T15:19:17.298Z,101747.91
2018-04-17T15:21:50.523Z,101739.39
2018-04-17T15:24:23.019Z,101745.64
2018-04-17T15:26:55.527Z,101740.50
2018-04-17T15:29:28.016Z,101749.61
2018-04-17T15:32:00.866Z,101752.52
2018-04-17T15:34:33.374Z,101743.38
2018-04-17T15:37:05.882Z,101752.66
2018-04-17T15:39:38.428Z,101749.66
2018-04-17T15:42:11.010Z,101749.68
2018-04-17T15:44:43.595Z,101753.84
2018-04-17T15:47:16.184Z,101752.86
2018-04-17T15:49:48.681Z,101748.52
2018-04-17T15:52:21.200Z,101739.55
2018-04-17T15:54:53.690Z,101730.05
2018-04-17T15:57:26.203Z,101732.40
2018-04-17T15:59:58.702Z,101728.23
2018-04-17T16:02:31.804Z,101728.97
2018-04-17T16:05:04.299Z,101723.05
2018-04-17T16:07:36.890Z,101718.69
2018-04-17T16:10:09.488Z,101718.37
2018-04-17T16:12:42.018Z,101719.21
2018-04-17T16:15:14.520Z,101720.69
2018-04-17T16:17:47.329Z,101723.84
2018-04-17T16:20:20.256Z,101727.83
2018-04-17T16:22:52.960Z,101729.58
2018-04-17T16:25:25.479Z,101736.68
2018-04-17T16:27:58.002Z,101745.09
2018-04-17T16:30:30.854Z,101743.01
2018-04-17T16:33:03.441Z,101755.80
2018-04-17T16:35:36.045Z,101750.78
2018-04-17T16:38:08.551Z,101755.83
2018-04-17T16:40:41.097Z,101758.31
2018-04-17T16:43:13.623Z,101764.77
2018-04-17T16:45:46.128Z,101764.16
2018-04-17T16:48:18.650Z,101767.88
2018-04-17T16:50:51.365Z,101764.85
2018-04-17T16:53:24.182Z,101761.84
2018-04-17T16:55:56.760Z,101769.52
2018-04-17T16:58:30.170Z,101764.92
2018-04-17T17:01:02.815Z,101769.56
2018-04-17T17:03:35.401Z,101769.98
2018-04-17T17:06:07.983Z,101777.45
2018-04-17T17:08:40.494Z,101785.47
2018-04-17T17:11:13.091Z,101787.45
2018-04-17T17:13:45.696Z,101785.47
2018-04-17T17:16:18.224Z,101792.36
2018-04-17T17:18:50.716Z,101793.33
2018-04-17T17:21:23.227Z,101802.52
2018-04-17T17:23:55.717Z,101801.01
2018-04-17T17:26:28.239Z,101807.91
2018-04-17T17:29:00.733Z,101806.60
2018-04-17T17:31:33.270Z,101805.05
2018-04-17T17:34:05.763Z,101810.86
2018-04-17T17:36:38.272Z,101817.17
2018-04-17T17:39:10.776Z,101816.05
2018-04-17T17:41:43.300Z,101817.80
2018-04-17T17:44:15.795Z,101820.44
2018-04-17T17:46:48.452Z,101822.88
2018-04-17T17:49:20.968Z,101821.19
2018-04-17T17:51:53.475Z,101817.34
2018-04-17T17:54:25.968Z,101822.19
2018-04-17T17:56:58.510Z,101817.91
2018-04-17T17:59:31.978Z,101820.66
2018-04-17T18:02:04.499Z,101818.91
2018-04-17T18:04:37.023Z,101823.19
2018-04-17T18:07:09.560Z,101826.41
2018-04-17T18:09:42.054Z,101830.00
2018-04-17T18:12:15.005Z,101829.04
2018-04-17T18:14:47.697Z,101826.85
2018-04-17T18:17:20.404Z,101826.34
2018-04-17T18:19:55.394Z,101825.73
2018-04-17T18:22:27.903Z,101829.09
2018-04-17T18:25:01.607Z,101836.31
2018-04-17T18:27:34.153Z,101833.81
2018-04-17T18:30:06.684Z,101842.23
2018-04-17T18:32:39.230Z,101843.28
2018-04-17T18:35:11.760Z,101844.88
2018-04-17T18:37:44.343Z,101852.52
2018-04-17T18:40:16.843Z,101860.89
2018-04-17T18:42:49.421Z,101862.83
2018-04-17T18:45:21.939Z,101860.98
2018-04-17T18:47:54.479Z,101871.11
2018-04-17T18:50:27.081Z,101872.91
2018-04-17T18:53:00.014Z,101867.16
2018-04-17T18:55:32.540Z,101869.61
2018-04-17T18:58:05.067Z,101876.69
2018-04-17T19:00:37.604Z,101872.73
2018-04-17T19:03:10.167Z,101880.09
2018-04-17T19:05:42.648Z,101883.84
2018-04-17T19:08:15.154Z,101885.15
2018-04-17T19:10:47.643Z,101891.88
2018-04-17T19:13:20.147Z,101893.03
2018-04-17T19:15:52.719Z,101900.04
2018-04-17T19:18:25.310Z,101899.84
2018-04-17T19:20:58.366Z,101902.63
2018-04-17T19:23:30.923Z,101904.44
2018-04-17T19:26:03.416Z,101910.02
2018-04-17T19:28:35.949Z,101915.32
2018-04-17T19:31:08.471Z,101919.61
2018-04-17T19:33:40.991Z,101921.51
2018-04-17T19:36:13.482Z,101933.48
2018-04-17T19:38:45.988Z,101930.00
2018-04-17T19:41:18.476Z,101931.33
2018-04-17T19:43:50.991Z,101934.84
2018-04-17T19:46:23.549Z,101925.09
2018-04-17T19:48:56.070Z,101922.80
2018-04-17T19:51:28.608Z,101924.81
2018-04-17T19:54:01.719Z,101928.73
2018-04-17T19:56:38.498Z,101925.53
2018-04-17T19:59:11.130Z,101930.78
2018-04-17T20:01:43.627Z,101935.44
2018-04-17T20:04:16.154Z,101934.65
2018-04-17T20:06:48.697Z,101943.78
2018-04-17T20:09:21.291Z,101947.47
2018-04-17T20:11:53.799Z,101946.73
2018-04-17T20:14:26.325Z,101948.47
2018-04-17T20:16:58.875Z,101948.06
2018-04-17T20:19:32.546Z,101943.00
2018-04-17T20:22:05.073Z,101948.03
2018-04-17T20:24:37.643Z,101948.16
2018-04-17T20:27:10.247Z,101952.11
2018-04-17T20:29:42.766Z,101950.69
2018-04-17T20:32:15.258Z,101953.66
2018-04-17T20:34:47.788Z,101955.35
2018-04-17T20:37:20.270Z,101949.05
2018-04-17T20:39:52.777Z,101939.97
2018-04-17T20:42:25.272Z,101942.00
2018-04-17T20:44:57.788Z,101946.39
2018-04-17T20:47:30.659Z,101948.45
2018-04-17T20:50:03.170Z,101949.34
2018-04-17T20:52:35.691Z,101953.19
2018-04-17T20:55:08.205Z,101956.67
2018-04-17T20:57:40.694Z,101952.80
2018-04-17T21:00:13.209Z,101952.06
2018-04-17T21:02:45.729Z,101946.05
2018-04-17T21:05:18.240Z,101948.20
2018-04-17T21:07:50.732Z,101948.20
2018-04-17T21:10:23.243Z,101948.34
2018-04-17T21:12:55.770Z,101946.23
2018-04-17T21:15:28.444Z,101947.56
2018-04-17T21:18:00.934Z,101947.59
2018-04-17T21:20:33.447Z,101961.36
2018-04-17T21:23:05.947Z,101953.34
2018-04-17T21:25:38.482Z,101962.37
2018-04-17T21:28:11.075Z,101958.59
2018-04-17T21:30:43.650Z,101959.12
2018-04-17T21:33:16.135Z,101957.77
2018-04-17T21:35:48.654Z,101956.46
2018-04-17T21:38:21.150Z,101955.58
2018-04-17T21:40:53.685Z,101955.23
2018-04-17T21:43:26.179Z,101950.80
2018-04-17T21:45:58.760Z,101952.17
2018-04-17T21:48:31.847Z,101960.38
2018-04-17T21:51:04.362Z,101966.11
2018-04-17T21:53:36.862Z,101959.24
2018-04-17T21:56:09.517Z,101962.67
2018-04-17T21:58:42.023Z,101969.12
2018-04-17T22:01:14.578Z,101967.54
2018-04-17T22:03:47.162Z,101972.28
2018-04-17T22:06:19.683Z,101971.78
2018-04-17T22:08:52.176Z,101964.60
2018-04-17T22:11:24.697Z,101971.12
2018-04-17T22:13:57.191Z,101975.38
2018-04-17T22:16:29.784Z,101979.73
2018-04-17T22:19:02.294Z,101972.50
2018-04-17T22:21:34.807Z,101974.66
2018-04-17T22:24:07.305Z,101976.31
2018-04-17T22:26:39.832Z,101978.55
2018-04-17T22:29:12.409Z,101983.59
2018-04-17T22:31:44.996Z,101978.37
2018-04-17T22:34:17.623Z,101982.67
2018-04-17T22:36:50.201Z,101985.34
2018-04-17T22:39:22.731Z,101987.48
2018-04-17T22:41:55.304Z,101986.19
2018-04-17T22:44:27.831Z,101984.95
2018-04-17T22:47:01.257Z,101993.06
2018-04-17T22:49:33.804Z,101993.05
2018-04-17T22:52:06.337Z,101983.67
2018-04-17T22:54:38.853Z,101987.52
2018-04-17T22:57:11.365Z,101994.36
2018-04-17T22:59:43.853Z,101998.27
2018-04-17T23:02:16.361Z,101996.17
2018-04-17T23:04:48.935Z,101999.19
2018-04-17T23:07:21.523Z,101993.28
2018-04-17T23:09:54.018Z,101999.72
2018-04-17T23:12:26.535Z,101999.70
2018-04-17T23:14:59.033Z,102000.53
2018-04-17T23:17:32.267Z,101999.27
2018-04-17T23:20:04.812Z,102005.30
2018-04-17T23:22:37.332Z,102010.01
2018-04-17T23:25:10.042Z,102014.31
2018-04-17T23:27:42.555Z,102008.39
2018-04-17T23:30:15.106Z,102013.53
2018-04-17T23:32:47.705Z,102010.16
2018-04-17T23:35:20.224Z,102012.73
2018-04-17T23:37:52.744Z,102007.61
2018-04-17T23:40:25.240Z,102008.91
2018-04-17T23:42:57.751Z,102010.22
2018-04-17T23:45:30.695Z,102012.30
2018-04-17T23:48:03.215Z,102015.32
2018-04-17T23:50:35.712Z,102020.91
2018-04-17T23:53:08.286Z,102024.75
2018-04-17T23:55:40.788Z,102027.72
2018-04-17T23:58:13.288Z,102024.33
